Time;durP1;ratioP1;P1;durP2;ratioP2;P2;SDS_P1;SDS_P2;PMS_P1;PMS_P2;Temp;Humidity;BMP_temperature;BMP_pressure;BME280_temperature;BME280_humidity;BME280_pressure;Samples;Min_cycle;Max_cycle;Signal;HPM_P1;HPM_P2
2022/07/17 00:02:20;;;;;;;;;;;11.80;99.90;;;;;;5044801;28;19913;-76
2022/07/17 00:04:45;;;;;;;;;;;11.70;99.90;;;;;;5033538;28;19967;-76
2022/07/17 00:07:11;;;;;;;;;;;11.80;99.90;;;;;;5034284;28;19916;-76
2022/07/17 00:09:36;;;;;;;;;;;11.60;99.90;;;;;;5034656;28;20031;-76
2022/07/17 00:12:02;;;;;;;;;;;11.60;99.90;;;;;;5033693;28;20008;-76
2022/07/17 00:14:28;;;;;;;;;;;11.50;99.90;;;;;;5033320;28;19909;-77
2022/07/17 00:16:53;;;;;;;;;;;11.50;99.90;;;;;;5033610;28;19962;-75
2022/07/17 00:19:20;;;;;;;;;;;11.60;99.90;;;;;;5027936;28;19909;-76
2022/07/17 00:21:45;;;;;;;;;;;11.60;99.90;;;;;;5045435;28;20509;-78
2022/07/17 00:24:12;;;;;;;;;;;11.70;99.90;;;;;;5033785;28;19996;-76
2022/07/17 00:26:37;;;;;;;;;;;11.70;99.90;;;;;;5046086;28;20263;-76
2022/07/17 00:29:03;;;;;;;;;;;11.60;99.90;;;;;;5040335;28;19925;-76
2022/07/17 00:31:29;;;;;;;;;;;11.60;99.90;;;;;;5052117;28;19916;-76
2022/07/17 00:33:54;;;;;;;;;;;11.50;99.90;;;;;;5026010;28;19909;-76
2022/07/17 00:36:20;;;;;;;;;;;11.50;99.90;;;;;;5033511;28;19913;-79
2022/07/17 00:38:45;;;;;;;;;;;11.40;99.90;;;;;;5033340;28;19988;-75
2022/07/17 00:41:13;;;;;;;;;;;11.40;99.90;;;;;;5033447;28;19949;-76
2022/07/17 00:43:38;;;;;;;;;;;11.30;99.90;;;;;;5032434;28;19916;-76
2022/07/17 00:46:05;;;;;;;;;;;11.30;99.90;;;;;;5032059;28;20271;-78
2022/07/17 00:48:31;;;;;;;;;;;11.30;99.90;;;;;;5035557;28;20276;-78
2022/07/17 00:50:56;;;;;;;;;;;11.20;99.90;;;;;;5027973;28;19959;-77
2022/07/17 00:53:22;;;;;;;;;;;11.20;99.90;;;;;;5030234;28;20305;-76
2022/07/17 00:55:48;;;;;;;;;;;11.20;99.90;;;;;;5033113;28;19913;-76
2022/07/17 00:58:18;;;;;;;;;;;11.20;99.90;;;;;;5033049;28;19991;-76
2022/07/17 01:00:44;;;;;;;;;;;11.20;99.90;;;;;;5033073;28;20389;-76
2022/07/17 01:03:09;;;;;;;;;;;11.00;99.90;;;;;;5031951;28;19988;-76
2022/07/17 01:05:35;;;;;;;;;;;11.00;99.90;;;;;;5037077;28;20388;-77
2022/07/17 01:08:00;;;;;;;;;;;11.00;99.90;;;;;;5039648;28;19909;-76
2022/07/17 01:10:26;;;;;;;;;;;11.00;99.90;;;;;;5038723;28;20324;-76
2022/07/17 01:12:51;;;;;;;;;;;10.90;99.90;;;;;;5051226;28;19934;-76
2022/07/17 01:15:17;;;;;;;;;;;10.90;99.90;;;;;;5051261;28;19925;-77
2022/07/17 01:17:42;;;;;;;;;;;10.90;99.90;;;;;;5051765;28;20290;-74
2022/07/17 01:20:09;;;;;;;;;;;10.90;99.90;;;;;;5051785;28;20914;-75
2022/07/17 01:22:44;;;;;;;;;;;10.80;99.90;;;;;;5047281;28;20000;-74
2022/07/17 01:25:10;;;;;;;;;;;10.80;99.90;;;;;;5024880;28;19912;-74
2022/07/17 01:27:36;;;;;;;;;;;10.90;99.90;;;;;;5039039;28;19909;-74
2022/07/17 01:30:02;;;;;;;;;;;10.80;99.90;;;;;;5050394;28;19909;-76
2022/07/17 01:32:34;;;;;;;;;;;10.90;99.90;;;;;;5050927;28;19975;-75
2022/07/17 01:35:01;;;;;;;;;;;10.80;99.90;;;;;;5044665;28;20350;-74
2022/07/17 01:37:27;;;;;;;;;;;10.80;99.90;;;;;;5048103;28;19916;-75
2022/07/17 01:39:52;;;;;;;;;;;10.70;99.90;;;;;;5032513;28;19909;-75
2022/07/17 01:42:18;;;;;;;;;;;10.70;99.90;;;;;;5031382;28;20278;-75
2022/07/17 01:44:43;;;;;;;;;;;10.70;99.90;;;;;;5031664;28;19913;-74
2022/07/17 01:47:09;;;;;;;;;;;10.70;99.90;;;;;;5032206;28;20258;-74
2022/07/17 01:49:34;;;;;;;;;;;10.70;99.90;;;;;;5030801;28;19910;-74
2022/07/17 01:52:00;;;;;;;;;;;10.60;99.90;;;;;;5042997;28;19979;-76
2022/07/17 01:54:26;;;;;;;;;;;10.50;99.90;;;;;;5030569;28;19955;-74
2022/07/17 01:56:51;;;;;;;;;;;10.50;99.90;;;;;;5035871;28;20452;-74
2022/07/17 01:59:17;;;;;;;;;;;10.40;99.90;;;;;;5030784;28;19913;-75
2022/07/17 02:01:42;;;;;;;;;;;10.40;99.90;;;;;;5031427;28;19932;-75
2022/07/17 02:04:08;;;;;;;;;;;10.50;99.90;;;;;;5031387;28;20309;-79
2022/07/17 02:06:33;;;;;;;;;;;10.50;99.90;;;;;;5030422;28;20011;-75
2022/07/17 02:08:59;;;;;;;;;;;10.40;99.90;;;;;;5032105;28;19909;-75
2022/07/17 02:11:25;;;;;;;;;;;10.30;99.90;;;;;;5031095;28;19982;-76
2022/07/17 02:13:50;;;;;;;;;;;10.20;99.90;;;;;;5029925;28;19985;-75
2022/07/17 02:16:16;;;;;;;;;;;10.40;99.90;;;;;;5030263;28;19912;-75
2022/07/17 02:18:41;;;;;;;;;;;10.40;99.90;;;;;;5031611;28;19909;-75
2022/07/17 02:21:07;;;;;;;;;;;10.40;99.90;;;;;;5031714;28;19959;-76
2022/07/17 02:23:32;;;;;;;;;;;10.30;99.90;;;;;;5026198;28;19916;-75
2022/07/17 02:25:58;;;;;;;;;;;10.30;99.90;;;;;;5035433;28;19909;-75
2022/07/17 02:28:23;;;;;;;;;;;10.40;99.90;;;;;;5050305;28;19962;-75
2022/07/17 02:30:49;;;;;;;;;;;10.50;99.90;;;;;;5032931;28;19951;-79
2022/07/17 02:33:14;;;;;;;;;;;10.50;99.90;;;;;;5030603;28;19909;-75
2022/07/17 02:35:40;;;;;;;;;;;10.30;99.90;;;;;;5031520;28;19913;-75
2022/07/17 02:38:06;;;;;;;;;;;10.10;99.90;;;;;;5039913;28;20286;-75
2022/07/17 02:40:31;;;;;;;;;;;10.00;99.90;;;;;;5033796;28;19909;-76
2022/07/17 02:42:57;;;;;;;;;;;10.20;99.90;;;;;;5030755;28;20365;-74
2022/07/17 02:45:24;;;;;;;;;;;10.10;99.90;;;;;;5047055;28;20007;-74
2022/07/17 02:47:50;;;;;;;;;;;10.10;99.90;;;;;;5033303;28;19915;-75
2022/07/17 02:50:16;;;;;;;;;;;10.10;99.90;;;;;;5050575;28;19915;-75
2022/07/17 02:52:43;;;;;;;;;;;10.10;99.90;;;;;;5034260;28;19909;-75
2022/07/17 02:55:09;;;;;;;;;;;10.00;99.90;;;;;;5029302;28;19912;-75
2022/07/17 02:57:35;;;;;;;;;;;10.00;99.90;;;;;;5027503;28;20389;-75
2022/07/17 03:00:01;;;;;;;;;;;10.10;99.90;;;;;;5031380;28;19909;-75
2022/07/17 03:02:27;;;;;;;;;;;10.00;99.90;;;;;;5030863;28;19918;-75
2022/07/17 03:04:52;;;;;;;;;;;10.00;99.90;;;;;;5030958;28;19909;-75
2022/07/17 03:07:18;;;;;;;;;;;10.00;99.90;;;;;;5031396;28;20412;-76
2022/07/17 03:09:43;;;;;;;;;;;10.10;99.90;;;;;;5035223;28;19913;-74
2022/07/17 03:12:09;;;;;;;;;;;10.00;99.90;;;;;;5033127;28;19917;-75
2022/07/17 03:14:34;;;;;;;;;;;10.00;99.90;;;;;;5034172;28;19999;-75
2022/07/17 03:17:00;;;;;;;;;;;9.90;99.90;;;;;;5038610;28;19909;-78
2022/07/17 03:19:25;;;;;;;;;;;9.90;99.90;;;;;;5042018;28;19955;-74
2022/07/17 03:21:51;;;;;;;;;;;9.90;99.90;;;;;;5040476;28;19909;-75
2022/07/17 03:24:16;;;;;;;;;;;9.90;99.90;;;;;;5036597;28;19909;-76
2022/07/17 03:26:42;;;;;;;;;;;9.80;99.90;;;;;;5045155;28;20347;-75
2022/07/17 03:29:07;;;;;;;;;;;9.80;99.90;;;;;;5053921;28;19913;-74
2022/07/17 03:31:32;;;;;;;;;;;9.70;99.90;;;;;;5053306;28;19912;-75
2022/07/17 03:33:58;;;;;;;;;;;9.70;99.90;;;;;;5053217;28;19909;-76
2022/07/17 03:36:24;;;;;;;;;;;9.70;99.90;;;;;;5047300;28;19963;-74
2022/07/17 03:38:49;;;;;;;;;;;9.70;99.90;;;;;;5052261;28;20289;-75
2022/07/17 03:41:14;;;;;;;;;;;9.60;99.90;;;;;;5053374;28;19913;-77
2022/07/17 03:43:40;;;;;;;;;;;9.70;99.90;;;;;;5052703;28;19916;-75
2022/07/17 03:46:05;;;;;;;;;;;9.60;99.90;;;;;;5053633;28;20353;-75
2022/07/17 03:48:31;;;;;;;;;;;9.50;99.90;;;;;;5038605;28;19931;-75
2022/07/17 03:50:56;;;;;;;;;;;9.60;99.90;;;;;;5030252;28;19917;-74
2022/07/17 03:53:22;;;;;;;;;;;9.60;99.90;;;;;;5031952;28;19939;-75
2022/07/17 03:55:47;;;;;;;;;;;9.60;99.90;;;;;;5034578;28;19920;-74
2022/07/17 03:58:13;;;;;;;;;;;9.50;99.90;;;;;;5034173;28;19917;-77
2022/07/17 04:00:38;;;;;;;;;;;9.50;99.90;;;;;;5034290;28;19913;-75
2022/07/17 04:03:04;;;;;;;;;;;9.50;99.90;;;;;;5048833;28;20424;-75
2022/07/17 04:05:29;;;;;;;;;;;9.50;99.90;;;;;;5053602;28;20007;-75
2022/07/17 04:07:55;;;;;;;;;;;9.60;99.90;;;;;;5053129;28;19915;-75
2022/07/17 04:10:20;;;;;;;;;;;9.60;99.90;;;;;;5053022;28;19967;-75
2022/07/17 04:12:47;;;;;;;;;;;9.70;99.90;;;;;;5052645;28;19928;-75
2022/07/17 04:15:48;;;;;;;;;;;9.90;99.90;;;;;;5052833;28;20270;-75
2022/07/17 04:17:58;;;;;;;;;;;10.10;99.90;;;;;;5038441;28;20032;-74
2022/07/17 04:20:24;;;;;;;;;;;10.20;99.90;;;;;;5037422;28;19948;-75
2022/07/17 04:22:49;;;;;;;;;;;10.30;99.90;;;;;;5033253;28;19913;-77
2022/07/17 04:25:15;;;;;;;;;;;10.30;99.90;;;;;;5033402;28;19917;-74
2022/07/17 04:27:40;;;;;;;;;;;10.40;99.90;;;;;;5033805;28;20010;-74
2022/07/17 04:30:06;;;;;;;;;;;10.50;99.90;;;;;;5033668;28;20414;-76
2022/07/17 04:32:31;;;;;;;;;;;10.50;99.90;;;;;;5032991;28;19909;-77
2022/07/17 04:34:57;;;;;;;;;;;10.50;99.90;;;;;;5032873;28;20014;-75
2022/07/17 04:37:22;;;;;;;;;;;10.50;99.90;;;;;;5033341;28;19909;-75
2022/07/17 04:39:48;;;;;;;;;;;10.50;99.90;;;;;;5033546;28;19916;-78
2022/07/17 04:42:13;;;;;;;;;;;10.60;99.90;;;;;;5031724;28;19940;-75
2022/07/17 04:44:39;;;;;;;;;;;10.50;99.90;;;;;;5032991;28;19909;-75
2022/07/17 04:47:04;;;;;;;;;;;10.60;99.90;;;;;;5032695;28;19917;-75
2022/07/17 04:49:30;;;;;;;;;;;10.70;99.90;;;;;;5024365;28;20321;-75
2022/07/17 04:51:56;;;;;;;;;;;10.80;99.90;;;;;;5038644;28;19963;-79
2022/07/17 04:54:21;;;;;;;;;;;10.90;99.90;;;;;;5032709;28;19940;-75
2022/07/17 04:56:47;;;;;;;;;;;11.00;99.90;;;;;;5044709;28;20027;-75
2022/07/17 04:59:12;;;;;;;;;;;11.10;99.90;;;;;;5051076;28;19909;-76
2022/07/17 05:01:38;;;;;;;;;;;11.20;99.90;;;;;;5045828;28;19916;-75
2022/07/17 05:04:04;;;;;;;;;;;11.30;99.90;;;;;;5032458;28;19913;-75
2022/07/17 05:06:30;;;;;;;;;;;11.30;99.90;;;;;;5031599;28;19913;-75
2022/07/17 05:08:55;;;;;;;;;;;11.40;99.90;;;;;;5033098;28;20420;-75
2022/07/17 05:11:20;;;;;;;;;;;11.50;99.90;;;;;;5050512;28;19946;-77
2022/07/17 05:13:46;;;;;;;;;;;11.60;99.90;;;;;;5051428;28;20374;-75
2022/07/17 05:16:12;;;;;;;;;;;11.80;99.90;;;;;;5051816;28;19913;-75
2022/07/17 05:18:37;;;;;;;;;;;12.00;99.90;;;;;;5040367;28;19913;-75
2022/07/17 05:21:03;;;;;;;;;;;12.00;99.90;;;;;;5029296;28;20004;-77
2022/07/17 05:23:28;;;;;;;;;;;12.10;99.90;;;;;;5031923;28;19919;-75
2022/07/17 05:25:54;;;;;;;;;;;12.20;99.90;;;;;;5032639;28;19909;-75
2022/07/17 05:28:19;;;;;;;;;;;12.30;99.90;;;;;;5031171;28;19909;-76
2022/07/17 05:30:45;;;;;;;;;;;12.40;99.90;;;;;;5031572;28;19913;-75
2022/07/17 05:33:10;;;;;;;;;;;12.50;99.90;;;;;;5031394;28;20326;-75
2022/07/17 05:35:36;;;;;;;;;;;12.80;99.90;;;;;;5031071;28;19917;-75
2022/07/17 05:38:01;;;;;;;;;;;12.90;99.90;;;;;;5030656;28;19937;-78
2022/07/17 05:40:27;;;;;;;;;;;13.00;99.90;;;;;;5031685;28;19913;-75
2022/07/17 05:42:52;;;;;;;;;;;13.10;99.90;;;;;;5030838;28;19915;-75
2022/07/17 05:45:18;;;;;;;;;;;13.30;99.90;;;;;;5030860;28;19909;-76
2022/07/17 05:47:43;;;;;;;;;;;13.50;99.90;;;;;;5033083;28;19909;-78
2022/07/17 05:50:09;;;;;;;;;;;14.10;99.90;;;;;;5037035;28;19981;-75
2022/07/17 05:52:34;;;;;;;;;;;15.80;99.90;;;;;;5051201;28;19909;-75
2022/07/17 05:55:00;;;;;;;;;;;17.00;99.90;;;;;;5050766;28;20313;-77
2022/07/17 05:57:25;;;;;;;;;;;16.20;99.90;;;;;;5051088;28;20389;-75
2022/07/17 05:59:51;;;;;;;;;;;15.00;99.90;;;;;;5051067;28;19912;-75
2022/07/17 06:02:16;;;;;;;;;;;14.80;99.90;;;;;;5050615;28;19909;-76
2022/07/17 06:04:42;;;;;;;;;;;14.80;99.90;;;;;;5050644;28;20054;-79
2022/07/17 06:07:07;;;;;;;;;;;16.20;99.90;;;;;;5051166;28;19909;-76
2022/07/17 06:09:33;;;;;;;;;;;16.70;99.90;;;;;;5051451;28;19909;-75
2022/07/17 06:11:58;;;;;;;;;;;16.00;99.90;;;;;;5050787;28;19940;-76
2022/07/17 06:14:24;;;;;;;;;;;15.40;99.90;;;;;;5050873;28;19915;-75
2022/07/17 06:16:50;;;;;;;;;;;15.00;99.90;;;;;;5046019;28;19913;-75
2022/07/17 06:19:15;;;;;;;;;;;15.10;99.90;;;;;;5038472;28;19963;-75
2022/07/17 06:21:41;;;;;;;;;;;15.30;99.90;;;;;;5032776;28;19913;-76
2022/07/17 06:24:06;;;;;;;;;;;15.80;99.90;;;;;;5031309;28;19916;-79
2022/07/17 06:26:32;;;;;;;;;;;16.80;99.90;;;;;;5031665;28;19909;-75
2022/07/17 06:28:57;;;;;;;;;;;18.20;99.90;;;;;;5030488;28;20330;-76
2022/07/17 06:31:23;;;;;;;;;;;19.30;97.20;;;;;;5029982;28;19909;-75
2022/07/17 06:33:48;;;;;;;;;;;19.80;95.80;;;;;;5040756;28;19908;-80
2022/07/17 06:36:14;;;;;;;;;;;19.70;94.60;;;;;;5041766;28;20381;-76
2022/07/17 06:38:39;;;;;;;;;;;18.60;95.60;;;;;;5031954;28;19913;-76
2022/07/17 06:41:05;;;;;;;;;;;18.20;97.10;;;;;;5031447;28;20369;-77
2022/07/17 06:43:31;;;;;;;;;;;17.80;98.90;;;;;;5034186;28;19909;-79
2022/07/17 06:45:56;;;;;;;;;;;17.10;99.50;;;;;;5035720;28;19909;-76
2022/07/17 06:48:22;;;;;;;;;;;16.90;99.90;;;;;;5036602;28;19916;-76
2022/07/17 06:50:47;;;;;;;;;;;17.20;99.90;;;;;;5040568;28;19920;-76
2022/07/17 06:53:13;;;;;;;;;;;18.00;99.90;;;;;;5034467;28;19940;-80
2022/07/17 06:55:39;;;;;;;;;;;19.50;95.20;;;;;;5035404;28;19913;-76
2022/07/17 06:58:04;;;;;;;;;;;19.50;95.70;;;;;;5034641;28;20377;-76
2022/07/17 07:00:30;;;;;;;;;;;19.80;95.40;;;;;;5035455;28;19999;-76
2022/07/17 07:02:55;;;;;;;;;;;19.90;95.70;;;;;;5034563;28;19909;-76
2022/07/17 07:05:21;;;;;;;;;;;21.30;93.00;;;;;;5034988;28;20004;-76
2022/07/17 07:07:46;;;;;;;;;;;22.00;89.40;;;;;;5035747;28;20444;-76
2022/07/17 07:10:12;;;;;;;;;;;22.40;87.50;;;;;;5027374;28;19955;-76
2022/07/17 07:12:38;;;;;;;;;;;22.40;86.40;;;;;;5053336;28;19916;-77
2022/07/17 07:15:04;;;;;;;;;;;22.40;84.60;;;;;;5048217;28;19920;-76
2022/07/17 07:17:31;;;;;;;;;;;23.30;85.90;;;;;;5034848;28;20399;-74
2022/07/17 07:19:57;;;;;;;;;;;23.10;84.30;;;;;;5034986;28;19917;-73
2022/07/17 07:22:23;;;;;;;;;;;23.10;80.50;;;;;;5034949;28;20349;-74
2022/07/17 07:24:48;;;;;;;;;;;23.60;78.50;;;;;;5034309;28;20040;-74
2022/07/17 07:27:14;;;;;;;;;;;24.00;79.20;;;;;;5034528;28;19963;-77
2022/07/17 07:29:39;;;;;;;;;;;24.10;78.10;;;;;;5034939;28;19913;-74
2022/07/17 07:32:05;;;;;;;;;;;23.90;72.90;;;;;;5038795;28;19908;-74
2022/07/17 07:34:30;;;;;;;;;;;24.00;75.00;;;;;;5053249;28;20353;-76
2022/07/17 07:36:56;;;;;;;;;;;24.50;74.40;;;;;;5053945;28;20386;-78
2022/07/17 07:39:21;;;;;;;;;;;24.80;73.10;;;;;;5038794;28;19944;-75
2022/07/17 07:41:47;;;;;;;;;;;24.60;71.50;;;;;;5028626;28;19920;-75
2022/07/17 07:44:12;;;;;;;;;;;24.20;71.90;;;;;;5034120;28;19909;-76
2022/07/17 07:46:38;;;;;;;;;;;24.90;73.20;;;;;;5033213;28;20409;-75
2022/07/17 07:49:03;;;;;;;;;;;25.40;69.30;;;;;;5034373;28;19917;-75
2022/07/17 07:51:29;;;;;;;;;;;25.30;69.70;;;;;;5034208;28;20394;-75
2022/07/17 07:53:55;;;;;;;;;;;25.90;67.50;;;;;;5032592;28;19909;-77
2022/07/17 07:56:20;;;;;;;;;;;26.10;66.70;;;;;;5034286;28;20011;-75
2022/07/17 07:58:46;;;;;;;;;;;26.20;70.00;;;;;;5034260;28;19913;-75
2022/07/17 08:01:11;;;;;;;;;;;25.80;68.50;;;;;;5034137;28;20000;-76
2022/07/17 08:03:37;;;;;;;;;;;26.20;67.60;;;;;;5033289;28;19913;-78
2022/07/17 08:06:02;;;;;;;;;;;25.90;68.60;;;;;;5034833;28;20290;-75
2022/07/17 08:08:28;;;;;;;;;;;26.10;68.30;;;;;;5042969;28;19957;-75
2022/07/17 08:10:53;;;;;;;;;;;26.30;66.40;;;;;;5039881;28;19999;-76
2022/07/17 08:13:19;;;;;;;;;;;27.50;65.30;;;;;;5052049;28;20278;-76
2022/07/17 08:15:45;;;;;;;;;;;27.60;62.20;;;;;;5053222;28;19913;-75
2022/07/17 08:18:10;;;;;;;;;;;27.50;63.30;;;;;;5046177;28;19917;-76
2022/07/17 08:20:36;;;;;;;;;;;27.30;63.80;;;;;;5032529;28;20051;-76
2022/07/17 08:23:01;;;;;;;;;;;28.10;62.40;;;;;;5033090;28;19955;-77
2022/07/17 08:25:27;;;;;;;;;;;27.90;63.90;;;;;;5033156;28;20044;-77
2022/07/17 08:27:52;;;;;;;;;;;27.40;63.50;;;;;;5033521;28;20370;-77
2022/07/17 08:30:18;;;;;;;;;;;27.40;61.30;;;;;;5033568;28;19971;-77
2022/07/17 08:32:43;;;;;;;;;;;27.90;59.50;;;;;;5037315;28;19915;-77
2022/07/17 08:35:09;;;;;;;;;;;28.60;61.10;;;;;;5034685;28;19936;-76
2022/07/17 08:37:45;;;;;;;;;;;28.70;60.60;;;;;;5033338;28;20317;-76
2022/07/17 08:40:21;;;;;;;;;;;28.60;59.60;;;;;;5024633;28;20323;-76
2022/07/17 08:42:47;;;;;;;;;;;28.30;59.90;;;;;;5023282;28;19917;-76
2022/07/17 08:45:12;;;;;;;;;;;29.60;57.00;;;;;;5023991;28;19964;-77
2022/07/17 08:47:38;;;;;;;;;;;29.10;54.60;;;;;;5044577;28;19955;-77
2022/07/17 08:50:04;;;;;;;;;;;28.20;58.00;;;;;;5033115;28;20259;-78
2022/07/17 08:52:30;;;;;;;;;;;28.80;57.00;;;;;;5033103;28;19909;-79
2022/07/17 08:54:55;;;;;;;;;;;28.20;56.60;;;;;;5032520;28;20383;-76
2022/07/17 08:57:21;;;;;;;;;;;28.50;58.00;;;;;;5033130;28;19909;-76
2022/07/17 08:59:49;;;;;;;;;;;28.70;58.00;;;;;;5032920;28;20055;-76
2022/07/17 09:02:14;;;;;;;;;;;28.90;55.40;;;;;;5032541;28;19909;-76
2022/07/17 09:04:40;;;;;;;;;;;29.20;55.90;;;;;;5038677;28;19915;-77
2022/07/17 09:07:06;;;;;;;;;;;29.90;57.50;;;;;;5032722;28;19963;-76
2022/07/17 09:09:33;;;;;;;;;;;30.00;55.70;;;;;;5033584;28;20398;-76
2022/07/17 09:12:02;;;;;;;;;;;30.10;53.30;;;;;;5036009;28;19917;-76
2022/07/17 09:14:39;;;;;;;;;;;30.20;53.60;;;;;;5046956;28;19913;-76
2022/07/17 09:17:05;;;;;;;;;;;30.60;54.60;;;;;;5032639;28;19974;-76
2022/07/17 09:19:39;;;;;;;;;;;29.80;53.40;;;;;;5044981;28;20278;-76
2022/07/17 09:22:05;;;;;;;;;;;30.20;53.30;;;;;;5045080;28;19955;-77
2022/07/17 09:24:38;;;;;;;;;;;29.00;52.00;;;;;;5025920;28;19960;-76
2022/07/17 09:27:04;;;;;;;;;;;28.80;55.20;;;;;;5032477;28;20011;-76
2022/07/17 09:29:30;;;;;;;;;;;29.20;57.10;;;;;;5046231;28;20035;-77
2022/07/17 09:31:55;;;;;;;;;;;30.20;56.40;;;;;;5051814;28;19908;-76
2022/07/17 09:34:21;;;;;;;;;;;30.20;53.80;;;;;;5051312;28;19916;-76
2022/07/17 09:36:58;;;;;;;;;;;30.00;52.30;;;;;;5045061;28;20251;-77
2022/07/17 09:39:33;;;;;;;;;;;29.80;54.30;;;;;;5028909;28;19916;-77
2022/07/17 09:41:58;;;;;;;;;;;30.40;55.80;;;;;;5028226;28;20004;-77
2022/07/17 09:44:24;;;;;;;;;;;30.50;55.60;;;;;;5040934;28;19952;-78
2022/07/17 09:46:50;;;;;;;;;;;29.80;49.70;;;;;;5052105;28;19916;-77
2022/07/17 09:49:17;;;;;;;;;;;30.10;53.40;;;;;;5052451;28;19916;-78
2022/07/17 09:51:44;;;;;;;;;;;29.90;53.90;;;;;;5050261;28;20354;-78
2022/07/17 09:54:10;;;;;;;;;;;30.40;55.20;;;;;;5046396;28;19935;-78
2022/07/17 09:56:37;;;;;;;;;;;29.30;50.90;;;;;;5052062;28;19913;-76
2022/07/17 09:59:04;;;;;;;;;;;29.50;53.50;;;;;;5045170;28;19909;-75
2022/07/17 10:01:30;;;;;;;;;;;30.00;52.10;;;;;;5051487;28;19952;-78
2022/07/17 10:03:55;;;;;;;;;;;30.10;50.90;;;;;;5042005;28;20009;-75
2022/07/17 10:06:22;;;;;;;;;;;29.20;52.80;;;;;;5031686;28;19909;-76
2022/07/17 10:08:47;;;;;;;;;;;30.60;52.30;;;;;;5025708;28;20351;-75
2022/07/17 10:11:19;;;;;;;;;;;29.60;48.40;;;;;;5019941;28;19963;-75
2022/07/17 10:13:46;;;;;;;;;;;28.50;50.30;;;;;;5045498;28;19909;-75
2022/07/17 10:16:13;;;;;;;;;;;28.80;54.10;;;;;;5051274;28;19935;-75
2022/07/17 10:18:42;;;;;;;;;;;29.80;50.40;;;;;;5037006;28;19961;-77
2022/07/17 10:21:11;;;;;;;;;;;30.70;52.50;;;;;;5031447;28;19917;-75
2022/07/17 10:23:37;;;;;;;;;;;30.50;50.80;;;;;;5030788;28;19913;-75
2022/07/17 10:26:02;;;;;;;;;;;29.20;51.90;;;;;;5032320;28;19913;-76
2022/07/17 10:28:41;;;;;;;;;;;28.90;54.40;;;;;;5049772;28;20325;-75
2022/07/17 10:31:07;;;;;;;;;;;29.30;52.70;;;;;;5051432;28;19908;-75
2022/07/17 10:33:32;;;;;;;;;;;30.50;50.60;;;;;;5050254;28;19932;-77
2022/07/17 10:35:59;;;;;;;;;;;30.80;50.60;;;;;;5043047;28;19913;-75
2022/07/17 10:38:26;;;;;;;;;;;30.40;48.60;;;;;;5017491;28;19977;-76
2022/07/17 10:41:01;;;;;;;;;;;30.80;51.20;;;;;;5010223;28;19917;-74
2022/07/17 10:43:27;;;;;;;;;;;30.20;49.50;;;;;;5035982;28;19913;-75
2022/07/17 10:45:53;;;;;;;;;;;29.20;46.90;;;;;;5050042;28;20393;-77
2022/07/17 10:48:19;;;;;;;;;;;29.70;52.70;;;;;;5050189;28;20377;-74
2022/07/17 10:50:45;;;;;;;;;;;29.90;48.80;;;;;;5048502;28;19909;-74
2022/07/17 10:53:18;;;;;;;;;;;29.40;49.00;;;;;;5030647;28;19909;-74
2022/07/17 10:55:45;;;;;;;;;;;30.20;49.60;;;;;;5047105;28;19913;-74
2022/07/17 10:58:24;;;;;;;;;;;30.30;47.70;;;;;;5041640;28;20408;-74
2022/07/17 11:01:16;;;;;;;;;;;30.90;44.30;;;;;;5030591;28;19979;-75
2022/07/17 11:03:55;;;;;;;;;;;30.50;49.20;;;;;;5025835;28;19909;-76
2022/07/17 11:06:24;;;;;;;;;;;30.30;48.50;;;;;;5031275;28;20003;-74
2022/07/17 11:08:50;;;;;;;;;;;30.10;45.80;;;;;;5028373;28;19932;-75
2022/07/17 11:11:17;;;;;;;;;;;31.20;45.60;;;;;;5034867;28;19921;-75
2022/07/17 11:13:43;;;;;;;;;;;31.00;46.00;;;;;;5041059;28;20276;-74
2022/07/17 11:16:08;;;;;;;;;;;30.50;50.30;;;;;;5031202;28;19913;-75
2022/07/17 11:18:34;;;;;;;;;;;31.00;45.50;;;;;;5045584;28;20293;-75
2022/07/17 11:21:00;;;;;;;;;;;30.50;52.90;;;;;;5050453;28;19913;-75
2022/07/17 11:23:27;;;;;;;;;;;29.70;49.60;;;;;;5041850;28;20328;-74
2022/07/17 11:25:57;;;;;;;;;;;30.30;47.00;;;;;;5031193;28;19991;-74
2022/07/17 11:28:27;;;;;;;;;;;30.10;49.00;;;;;;5031199;28;19916;-74
2022/07/17 11:30:52;;;;;;;;;;;30.30;48.10;;;;;;5034769;28;20314;-75
2022/07/17 11:33:17;;;;;;;;;;;29.70;46.30;;;;;;5033514;28;19967;-74
2022/07/17 11:35:45;;;;;;;;;;;30.00;47.50;;;;;;5034828;28;20211;-75
2022/07/17 11:38:12;;;;;;;;;;;30.10;47.80;;;;;;5038583;28;19920;-74
2022/07/17 11:40:47;;;;;;;;;;;30.20;43.70;;;;;;5033872;28;19913;-74
2022/07/17 11:43:13;;;;;;;;;;;30.50;41.70;;;;;;5053009;28;20374;-74
2022/07/17 11:45:39;;;;;;;;;;;30.80;47.10;;;;;;5053728;28;19915;-77
2022/07/17 11:48:05;;;;;;;;;;;29.20;46.40;;;;;;5053201;28;19963;-74
2022/07/17 11:50:30;;;;;;;;;;;29.80;46.30;;;;;;5038573;28;19917;-75
2022/07/17 11:53:00;;;;;;;;;;;30.10;45.00;;;;;;5034085;28;19932;-78
2022/07/17 11:55:34;;;;;;;;;;;30.80;46.90;;;;;;5033812;28;19961;-74
2022/07/17 11:57:59;;;;;;;;;;;31.00;42.90;;;;;;5034404;28;19966;-74
2022/07/17 12:00:25;;;;;;;;;;;30.50;45.70;;;;;;5034366;28;19912;-74
2022/07/17 12:03:00;;;;;;;;;;;30.50;48.40;;;;;;5036126;28;20286;-74
2022/07/17 12:05:27;;;;;;;;;;;31.10;46.60;;;;;;5053043;28;20361;-74
2022/07/17 12:07:53;;;;;;;;;;;30.70;44.50;;;;;;5050145;28;19916;-75
2022/07/17 12:10:21;;;;;;;;;;;30.20;43.00;;;;;;5031620;28;19912;-74
2022/07/17 12:13:01;;;;;;;;;;;30.30;45.80;;;;;;5035628;28;19909;-77
2022/07/17 12:15:40;;;;;;;;;;;30.20;44.00;;;;;;5041110;28;19913;-74
2022/07/17 12:18:06;;;;;;;;;;;30.40;47.00;;;;;;5027070;28;20004;-74
2022/07/17 12:20:44;;;;;;;;;;;30.80;46.10;;;;;;5053193;28;19916;-74
2022/07/17 12:23:26;;;;;;;;;;;30.50;43.50;;;;;;5050879;28;19909;-74
2022/07/17 12:25:51;;;;;;;;;;;29.80;45.70;;;;;;5050078;28;19910;-75
2022/07/17 12:28:17;;;;;;;;;;;30.70;45.00;;;;;;5042859;28;19919;-75
2022/07/17 12:30:42;;;;;;;;;;;29.90;46.10;;;;;;5051628;28;20286;-74
2022/07/17 12:33:08;;;;;;;;;;;30.50;48.20;;;;;;5049394;28;19934;-75
2022/07/17 12:35:34;;;;;;;;;;;31.10;43.90;;;;;;5035757;28;20378;-74
2022/07/17 12:37:59;;;;;;;;;;;32.70;40.30;;;;;;5050754;28;19916;-75
2022/07/17 12:40:25;;;;;;;;;;;33.70;39.90;;;;;;5032382;28;20349;-74
2022/07/17 12:42:50;;;;;;;;;;;35.00;41.10;;;;;;5052046;28;20030;-75
2022/07/17 12:45:16;;;;;;;;;;;36.00;40.60;;;;;;5052061;28;19936;-74
2022/07/17 12:47:41;;;;;;;;;;;36.80;37.90;;;;;;5052390;28;19955;-76
2022/07/17 12:50:07;;;;;;;;;;;37.20;37.00;;;;;;5040204;28;19939;-74
2022/07/17 12:52:33;;;;;;;;;;;36.50;34.60;;;;;;5033317;28;19909;-74
2022/07/17 12:54:59;;;;;;;;;;;37.50;36.40;;;;;;5032605;28;19956;-75
2022/07/17 12:57:24;;;;;;;;;;;36.90;33.50;;;;;;5032989;28;19915;-75
2022/07/17 12:59:50;;;;;;;;;;;36.00;31.20;;;;;;5052366;28;20007;-74
2022/07/17 13:02:16;;;;;;;;;;;36.60;32.40;;;;;;5051837;28;19908;-74
2022/07/17 13:04:41;;;;;;;;;;;36.50;35.00;;;;;;5051607;28;20030;-74
2022/07/17 13:07:07;;;;;;;;;;;37.00;33.50;;;;;;5052174;28;19954;-74
2022/07/17 13:09:33;;;;;;;;;;;37.60;36.30;;;;;;5039670;28;19910;-74
2022/07/17 13:11:58;;;;;;;;;;;37.20;28.90;;;;;;5028840;28;19986;-76
2022/07/17 13:14:24;;;;;;;;;;;37.50;34.50;;;;;;5051541;28;19916;-74
2022/07/17 13:16:49;;;;;;;;;;;36.00;31.90;;;;;;5051828;28;20281;-74
2022/07/17 13:19:15;;;;;;;;;;;35.80;32.10;;;;;;5051668;28;20373;-74
2022/07/17 13:21:40;;;;;;;;;;;36.50;31.50;;;;;;5050069;28;19908;-77
2022/07/17 13:24:06;;;;;;;;;;;36.60;29.20;;;;;;5051352;28;19909;-74
2022/07/17 13:26:32;;;;;;;;;;;36.00;29.20;;;;;;5047880;28;19909;-75
2022/07/17 13:28:57;;;;;;;;;;;36.70;33.00;;;;;;5032681;28;20378;-74
2022/07/17 13:31:23;;;;;;;;;;;37.00;28.30;;;;;;5032117;28;19909;-75
2022/07/17 13:33:49;;;;;;;;;;;37.00;34.90;;;;;;5031744;28;19913;-75
2022/07/17 13:36:14;;;;;;;;;;;35.20;32.00;;;;;;5031148;28;20363;-74
2022/07/17 13:38:40;;;;;;;;;;;35.50;31.00;;;;;;5031587;28;19963;-75
2022/07/17 13:41:05;;;;;;;;;;;36.90;31.50;;;;;;5040150;28;19909;-76
2022/07/17 13:43:31;;;;;;;;;;;37.60;31.20;;;;;;5027114;28;19962;-77
2022/07/17 13:45:56;;;;;;;;;;;35.60;30.60;;;;;;5045433;28;20366;-75
2022/07/17 13:48:22;;;;;;;;;;;36.90;32.50;;;;;;5032120;28;19917;-75
2022/07/17 13:50:48;;;;;;;;;;;37.20;33.30;;;;;;5039580;28;19913;-75
2022/07/17 13:53:13;;;;;;;;;;;35.70;31.80;;;;;;5049769;28;19909;-77
2022/07/17 13:55:39;;;;;;;;;;;36.70;34.90;;;;;;5050264;28;19917;-75
2022/07/17 13:58:06;;;;;;;;;;;36.00;34.40;;;;;;5032035;28;19909;-75
2022/07/17 14:00:32;;;;;;;;;;;36.80;31.20;;;;;;5032021;28;19918;-76
2022/07/17 14:02:57;;;;;;;;;;;36.10;31.80;;;;;;5031574;28;19917;-78
2022/07/17 14:05:23;;;;;;;;;;;36.40;34.40;;;;;;5037816;28;19909;-75
2022/07/17 14:07:48;;;;;;;;;;;36.30;32.00;;;;;;5025305;28;19909;-75
2022/07/17 14:10:14;;;;;;;;;;;36.30;31.90;;;;;;5034624;28;19916;-76
2022/07/17 14:12:39;;;;;;;;;;;36.50;32.00;;;;;;5032149;28;20390;-75
2022/07/17 14:15:06;;;;;;;;;;;36.70;33.90;;;;;;5031679;28;20023;-74